Aérodrome :
LOGIN :

S'inscrire | Disclaimer

   EN    FR    IT 

 










Légende :    VFR   VFR Marginal   IFR   IFR Intensif   IFR Très Intensif
Visi : 
Plafond : 
>= 8 km
>= 3000ft
5 à 8 km
1000 à 3000 ft
1500m à 5 km
500 à 1000 ft
800 à 1500m
200 à 500 ft
< 800m
< 200 ft
Symboles :   Orages  Brouillard  Fortes neiges  Fortes précipitations  Vent > 20 kt
SIGMETs :   Divers  Orages  Givrage  Turbulence  Onde Orograph.  Cendres Volcan.






- Altitude de l'aérodrome : 399 ft
- Code IATA : KIV


LUKK - Chisinau Int.

DERNIER METAR :
  • 050730Z 21012KT CAVOK 25/12 Q1007 R08/D NOSIG

METARs EXPIRÉS :
  • 050700Z 20012KT CAVOK 24/14 Q1007 R08/D NOSIG
  • 050630Z 20010KT CAVOK 23/12 Q1007 R08/CLRD// NOSIG
  • 050600Z 21006KT 160V250 CAVOK 21/12 Q1007 R08/D NOSIG
  • 050530Z 20012KT CAVOK 21/12 Q1007 R08/CLRD// NOSIG
  • 050500Z 18009KT CAVOK 19/12 Q1007 R08/CLRD// NOSIG

TAF TAF LUKK
Valide du 05 à 06h jusqu'au 06 à 06h UTC


050520Z 0506/0606 20014KT CAVOK
TEMPO 0509/0515 22016G28KT
PROB40
TEMPO 0510/0516 SCT045CB
BECMG 0521/0523 18004KT



MET'MAP, la Météo Aéronautique d'un coup d'oeil ! - Copyright ORBIFLY Décembre 2007 - Disclaimer

ORBIFLY MET'MAP TEAM :

Programmation & Développement : Alexandra Zaïnal
Sur une idée originale de : Baudouin d'Aumeries
Assistance à la programmation : Marc-Olivier Méhu
Soutien technique & logistique : Manuel Goepfert

Contact : metmap@orbifly.com




SOURCES & CREDITS :

   NOAA